Time;durP1;ratioP1;P1;durP2;ratioP2;P2;SDS_P1;SDS_P2;PMS_P1;PMS_P2;Temp;Humidity;BMP_temperature;BMP_pressure;BME280_temperature;BME280_humidity;BME280_pressure;Samples;Min_cycle;Max_cycle;Signal;HPM_P1;HPM_P2
2024/03/07 00:00:14;;;;;;;73.57;26.97;;;;;;;;;;5007191;28;20034;-69
2024/03/07 00:02:39;;;;;;;65.80;25.50;;;;;;;;;;5009228;28;20302;-70
2024/03/07 00:05:05;;;;;;;66.72;26.33;;;;;;;;;;5011043;28;20022;-70
2024/03/07 00:07:30;;;;;;;73.03;26.13;;;;;;;;;;5010732;28;20032;-70
2024/03/07 00:09:55;;;;;;;65.40;25.15;;;;;;;;;;5011270;28;20058;-70
2024/03/07 00:12:22;;;;;;;72.40;25.48;;;;;;;;;;5000662;28;20029;-70
2024/03/07 00:14:48;;;;;;;63.28;25.73;;;;;;;;;;5006610;28;20597;-71
2024/03/07 00:17:14;;;;;;;59.30;24.60;;;;;;;;;;5008049;28;20140;-70
2024/03/07 00:19:39;;;;;;;72.72;26.33;;;;;;;;;;5004857;28;20277;-70
2024/03/07 00:22:04;;;;;;;59.33;24.27;;;;;;;;;;5005679;28;20054;-70
2024/03/07 00:24:29;;;;;;;67.03;25.10;;;;;;;;;;5002098;28;20026;-70
2024/03/07 00:26:54;;;;;;;77.43;26.50;;;;;;;;;;5010609;28;20293;-70
2024/03/07 00:29:20;;;;;;;62.30;24.03;;;;;;;;;;5009092;28;20263;-70
2024/03/07 00:31:46;;;;;;;61.58;24.58;;;;;;;;;;5010717;28;20281;-70
2024/03/07 00:34:13;;;;;;;69.85;26.90;;;;;;;;;;5006932;28;20030;-70
2024/03/07 00:36:39;;;;;;;62.30;24.15;;;;;;;;;;5010333;28;20022;-70
2024/03/07 00:39:04;;;;;;;64.97;26.27;;;;;;;;;;4999801;28;20038;-70
2024/03/07 00:41:30;;;;;;;68.97;25.40;;;;;;;;;;5002593;28;20057;-70
2024/03/07 00:43:56;;;;;;;66.80;24.23;;;;;;;;;;5001083;28;20263;-70
2024/03/07 00:46:21;;;;;;;61.75;24.40;;;;;;;;;;5003649;28;20030;-71
2024/03/07 00:48:46;;;;;;;57.43;23.17;;;;;;;;;;5000855;28;20014;-70
2024/03/07 00:51:11;;;;;;;65.37;24.70;;;;;;;;;;5006085;28;20260;-70
2024/03/07 00:53:37;;;;;;;61.57;22.67;;;;;;;;;;4999833;28;20347;-70
2024/03/07 00:56:02;;;;;;;58.95;23.50;;;;;;;;;;5004627;28;20770;-70
2024/03/07 00:58:28;;;;;;;60.90;22.20;;;;;;;;;;5005972;28;20038;-70
2024/03/07 01:00:53;;;;;;;68.18;23.90;;;;;;;;;;4994662;28;20030;-70
2024/03/07 01:03:18;;;;;;;63.23;23.43;;;;;;;;;;5001732;28;20037;-70
2024/03/07 01:05:44;;;;;;;61.97;22.80;;;;;;;;;;5004612;28;20272;-70
2024/03/07 01:08:09;;;;;;;56.17;22.88;;;;;;;;;;5000853;28;20105;-70
2024/03/07 01:10:34;;;;;;;61.22;23.27;;;;;;;;;;4995817;28;20017;-70
2024/03/07 01:13:02;;;;;;;73.13;24.80;;;;;;;;;;5001602;28;20381;-71
2024/03/07 01:15:30;;;;;;;66.53;25.05;;;;;;;;;;5005424;28;20048;-69
2024/03/07 01:17:55;;;;;;;55.22;23.38;;;;;;;;;;5002516;28;20034;-70
2024/03/07 01:20:21;;;;;;;65.53;24.20;;;;;;;;;;5007860;28;20534;-70
2024/03/07 01:22:46;;;;;;;61.95;23.33;;;;;;;;;;5005338;28;20561;-70
2024/03/07 01:25:12;;;;;;;55.87;21.93;;;;;;;;;;5007970;28;20036;-70
2024/03/07 01:27:37;;;;;;;58.15;21.20;;;;;;;;;;5006412;28;20350;-70
2024/03/07 01:30:03;;;;;;;65.05;22.73;;;;;;;;;;5005968;28;20481;-70
2024/03/07 01:32:28;;;;;;;61.05;21.90;;;;;;;;;;5005537;28;20121;-70
2024/03/07 01:34:54;;;;;;;62.95;23.92;;;;;;;;;;5005224;28;20669;-70
2024/03/07 01:37:19;;;;;;;56.70;22.77;;;;;;;;;;5004719;28;20038;-70
2024/03/07 01:39:44;;;;;;;65.32;24.20;;;;;;;;;;5007527;28;20045;-71
2024/03/07 01:42:10;;;;;;;55.83;22.77;;;;;;;;;;5006837;28;20021;-69
2024/03/07 01:44:35;;;;;;;75.73;24.27;;;;;;;;;;5007977;28;20336;-71
2024/03/07 01:47:03;;;;;;;63.05;23.77;;;;;;;;;;5006548;28;20357;-70
2024/03/07 01:49:29;;;;;;;68.38;23.88;;;;;;;;;;5009070;28;20014;-69
2024/03/07 01:51:54;;;;;;;61.72;23.73;;;;;;;;;;4997842;28;20054;-69
2024/03/07 01:54:19;;;;;;;65.45;23.52;;;;;;;;;;5005480;28;20507;-70
2024/03/07 01:56:44;;;;;;;60.95;23.70;;;;;;;;;;5001236;28;20021;-70
2024/03/07 01:59:10;;;;;;;63.95;21.65;;;;;;;;;;4999606;28;20104;-69
2024/03/07 02:01:37;;;;;;;59.80;22.25;;;;;;;;;;5003930;28;20062;-70
2024/03/07 02:04:02;;;;;;;60.58;23.33;;;;;;;;;;5003008;28;20075;-70
2024/03/07 02:06:28;;;;;;;61.63;21.73;;;;;;;;;;4998152;28;20793;-70
2024/03/07 02:08:53;;;;;;;70.57;24.00;;;;;;;;;;5001982;28;20253;-70
2024/03/07 02:11:18;;;;;;;66.83;25.20;;;;;;;;;;5008367;28;20109;-70
2024/03/07 02:13:43;;;;;;;71.03;25.00;;;;;;;;;;5007691;28;20268;-70
2024/03/07 02:16:09;;;;;;;73.23;26.03;;;;;;;;;;5006317;28;20093;-69
2024/03/07 02:18:35;;;;;;;69.95;25.40;;;;;;;;;;5005497;28;20740;-70
2024/03/07 02:21:00;;;;;;;69.30;23.77;;;;;;;;;;5007950;28;20029;-70
2024/03/07 02:23:27;;;;;;;72.03;25.23;;;;;;;;;;5003097;28;20433;-71
2024/03/07 02:25:52;;;;;;;67.68;25.90;;;;;;;;;;5004808;28;20029;-70
2024/03/07 02:28:17;;;;;;;67.32;22.80;;;;;;;;;;5003272;28;20030;-71
2024/03/07 02:30:45;;;;;;;66.50;25.67;;;;;;;;;;5009085;28;20019;-69
2024/03/07 02:33:11;;;;;;;71.63;24.65;;;;;;;;;;5007364;28;20014;-69
2024/03/07 02:35:37;;;;;;;68.55;23.30;;;;;;;;;;4992933;28;20022;-70
2024/03/07 02:38:03;;;;;;;76.13;23.83;;;;;;;;;;5007809;28;20048;-70
2024/03/07 02:40:28;;;;;;;68.28;25.02;;;;;;;;;;5004488;28;20301;-70
2024/03/07 02:42:53;;;;;;;73.30;24.98;;;;;;;;;;4998837;28;20438;-70
2024/03/07 02:45:18;;;;;;;71.15;24.58;;;;;;;;;;4999480;28;20041;-70
2024/03/07 02:47:44;;;;;;;72.13;25.00;;;;;;;;;;5002310;28;20481;-70
2024/03/07 02:50:09;;;;;;;65.15;23.83;;;;;;;;;;5005186;28;20299;-70
2024/03/07 02:52:35;;;;;;;72.53;25.35;;;;;;;;;;4999449;28;20105;-70
2024/03/07 02:55:00;;;;;;;61.42;23.33;;;;;;;;;;5004211;28;20021;-70
2024/03/07 02:57:25;;;;;;;76.40;24.45;;;;;;;;;;5004562;28;20528;-69
2024/03/07 02:59:50;;;;;;;75.18;23.95;;;;;;;;;;5004674;28;20473;-69
2024/03/07 03:02:15;;;;;;;70.97;24.10;;;;;;;;;;5003904;28;20026;-70
2024/03/07 03:04:41;;;;;;;70.63;24.80;;;;;;;;;;4996068;28;20065;-70
2024/03/07 03:07:06;;;;;;;69.73;25.50;;;;;;;;;;5009478;28;20296;-71
2024/03/07 03:09:33;;;;;;;75.32;24.00;;;;;;;;;;5010791;28;20292;-69
2024/03/07 03:11:58;;;;;;;79.20;23.90;;;;;;;;;;5008761;28;20018;-71
2024/03/07 03:14:23;;;;;;;68.47;24.60;;;;;;;;;;5001156;28;20029;-69
2024/03/07 03:16:49;;;;;;;64.50;24.33;;;;;;;;;;5009197;28;20497;-70
2024/03/07 03:19:14;;;;;;;66.72;23.77;;;;;;;;;;5007758;28;20343;-70
2024/03/07 03:21:40;;;;;;;65.40;23.98;;;;;;;;;;5009026;28;20030;-70
2024/03/07 03:24:07;;;;;;;70.32;24.85;;;;;;;;;;5011925;28;20241;-70
2024/03/07 03:26:32;;;;;;;65.75;24.00;;;;;;;;;;5008007;28;20029;-69
2024/03/07 03:28:57;;;;;;;70.97;24.75;;;;;;;;;;5007957;28;20018;-70
2024/03/07 03:31:23;;;;;;;70.28;25.02;;;;;;;;;;5008937;28;20021;-71
2024/03/07 03:33:48;;;;;;;77.67;23.87;;;;;;;;;;5006461;28;20121;-70
2024/03/07 03:36:14;;;;;;;65.18;24.05;;;;;;;;;;5011295;28;20249;-70
2024/03/07 03:38:39;;;;;;;70.93;25.48;;;;;;;;;;5008272;28;20030;-70
2024/03/07 03:41:04;;;;;;;71.20;25.97;;;;;;;;;;5002579;28;20053;-70
2024/03/07 03:43:29;;;;;;;68.28;24.45;;;;;;;;;;5005415;28;20272;-70
2024/03/07 03:45:56;;;;;;;68.18;23.58;;;;;;;;;;5002373;28;20018;-70
2024/03/07 03:48:21;;;;;;;73.07;23.77;;;;;;;;;;5001417;28;20053;-71
2024/03/07 03:50:47;;;;;;;71.55;23.85;;;;;;;;;;5003547;28;20045;-70
2024/03/07 03:53:12;;;;;;;68.83;24.67;;;;;;;;;;5008041;28;20017;-70
2024/03/07 03:55:37;;;;;;;71.72;24.60;;;;;;;;;;5006234;28;20308;-70
2024/03/07 03:58:02;;;;;;;59.70;22.37;;;;;;;;;;5010252;28;20025;-70
2024/03/07 04:00:28;;;;;;;59.83;24.30;;;;;;;;;;5009010;28;20611;-70
2024/03/07 04:02:53;;;;;;;59.83;22.45;;;;;;;;;;5003685;28;20470;-70
2024/03/07 04:05:19;;;;;;;70.13;23.98;;;;;;;;;;5005314;28;20026;-70
2024/03/07 04:07:45;;;;;;;68.10;23.52;;;;;;;;;;5010388;28;20477;-69
2024/03/07 04:10:11;;;;;;;69.03;23.50;;;;;;;;;;5009728;28;20022;-70
2024/03/07 04:12:37;;;;;;;67.53;24.88;;;;;;;;;;5007281;28;20030;-71
2024/03/07 04:15:04;;;;;;;63.13;24.30;;;;;;;;;;5007146;28;20446;-71
2024/03/07 04:17:29;;;;;;;64.22;23.08;;;;;;;;;;5008362;28;20104;-70
2024/03/07 04:19:54;;;;;;;62.50;23.38;;;;;;;;;;5006600;28;20097;-71
2024/03/07 04:22:19;;;;;;;62.22;24.02;;;;;;;;;;5000635;28;20028;-69
2024/03/07 04:24:45;;;;;;;66.18;23.92;;;;;;;;;;5002907;28;20104;-70
2024/03/07 04:27:10;;;;;;;55.85;21.08;;;;;;;;;;5005416;28;20057;-70
2024/03/07 04:29:35;;;;;;;60.75;22.98;;;;;;;;;;5001002;28;20018;-70
2024/03/07 04:32:01;;;;;;;64.67;22.43;;;;;;;;;;5001020;28;20025;-70
2024/03/07 04:34:27;;;;;;;63.47;22.83;;;;;;;;;;5002324;28;20318;-70
2024/03/07 04:36:53;;;;;;;67.10;21.25;;;;;;;;;;5010768;28;20026;-70
2024/03/07 04:39:33;;;;;;;68.75;21.88;;;;;;;;;;5011492;28;20032;-70
2024/03/07 04:42:02;;;;;;;57.42;22.38;;;;;;;;;;5006307;28;20446;-70
2024/03/07 04:44:27;;;;;;;58.97;21.90;;;;;;;;;;5003379;28;20044;-70
2024/03/07 04:46:56;;;;;;;70.72;23.25;;;;;;;;;;5003419;28;20022;-70
2024/03/07 04:49:23;;;;;;;68.38;22.67;;;;;;;;;;5010451;28;20026;-70
2024/03/07 04:51:49;;;;;;;58.63;21.95;;;;;;;;;;5000414;28;20036;-71
2024/03/07 04:54:14;;;;;;;62.35;21.95;;;;;;;;;;5007224;28;20025;-70
2024/03/07 04:56:40;;;;;;;66.53;21.63;;;;;;;;;;5010502;28;20018;-70
2024/03/07 04:59:06;;;;;;;61.83;20.92;;;;;;;;;;5011354;28;20257;-70
2024/03/07 05:01:31;;;;;;;59.42;20.90;;;;;;;;;;5005275;28;20465;-69
2024/03/07 05:03:57;;;;;;;59.53;20.27;;;;;;;;;;4998789;28;20477;-70
2024/03/07 05:06:22;;;;;;;60.80;21.40;;;;;;;;;;5019929;28;20289;-69
2024/03/07 05:08:47;;;;;;;51.27;20.73;;;;;;;;;;5004938;28;20079;-70
2024/03/07 05:11:12;;;;;;;64.38;21.58;;;;;;;;;;5002651;28;20320;-69
2024/03/07 05:13:38;;;;;;;63.43;22.53;;;;;;;;;;5009808;28;20034;-70
2024/03/07 05:16:03;;;;;;;54.60;21.08;;;;;;;;;;5007464;28;20336;-70
2024/03/07 05:18:28;;;;;;;57.47;21.90;;;;;;;;;;5005255;28;20026;-70
2024/03/07 05:20:54;;;;;;;61.03;21.90;;;;;;;;;;5007602;28;20104;-70
2024/03/07 05:23:19;;;;;;;59.50;22.55;;;;;;;;;;5006899;28;20500;-70
2024/03/07 05:25:45;;;;;;;58.13;20.48;;;;;;;;;;5002901;28;20029;-70
2024/03/07 05:28:11;;;;;;;59.22;20.20;;;;;;;;;;5003230;28;20018;-71
2024/03/07 05:30:36;;;;;;;63.55;21.20;;;;;;;;;;5006398;28;20026;-69
2024/03/07 05:33:02;;;;;;;67.97;23.53;;;;;;;;;;5009029;28;20029;-70
2024/03/07 05:35:29;;;;;;;64.60;22.08;;;;;;;;;;5002867;28;20320;-69
2024/03/07 05:37:56;;;;;;;61.20;21.92;;;;;;;;;;4993542;28;20488;-69
2024/03/07 05:40:21;;;;;;;57.72;20.90;;;;;;;;;;5002914;28;20033;-69
2024/03/07 05:42:46;;;;;;;61.42;22.55;;;;;;;;;;4995524;28;20049;-70
2024/03/07 05:45:13;;;;;;;66.50;21.77;;;;;;;;;;5005197;28;20025;-71
2024/03/07 05:47:38;;;;;;;64.80;22.20;;;;;;;;;;5008781;28;20487;-69
2024/03/07 05:50:04;;;;;;;68.03;23.08;;;;;;;;;;5003141;28;20018;-69
2024/03/07 05:52:29;;;;;;;65.03;22.58;;;;;;;;;;5002724;28;20060;-70
2024/03/07 05:54:54;;;;;;;68.10;21.58;;;;;;;;;;5005833;28;20018;-70
2024/03/07 05:57:19;;;;;;;63.60;22.53;;;;;;;;;;5001898;28;20118;-69
2024/03/07 05:59:46;;;;;;;58.40;22.37;;;;;;;;;;5009934;28;20267;-70
2024/03/07 06:02:15;;;;;;;71.50;22.55;;;;;;;;;;5001119;28;20260;-70
2024/03/07 06:04:40;;;;;;;71.35;23.63;;;;;;;;;;5008062;28;20034;-69
2024/03/07 06:07:05;;;;;;;54.20;21.80;;;;;;;;;;5004891;28;20644;-70
2024/03/07 06:09:31;;;;;;;68.07;22.60;;;;;;;;;;5004243;28;20318;-70
2024/03/07 06:11:56;;;;;;;70.47;24.75;;;;;;;;;;5008289;28;20018;-70
2024/03/07 06:14:22;;;;;;;72.70;24.83;;;;;;;;;;5009202;28;20026;-69
2024/03/07 06:16:48;;;;;;;65.93;24.75;;;;;;;;;;5000891;28;20072;-70
2024/03/07 06:19:13;;;;;;;68.65;24.23;;;;;;;;;;5004744;28;20027;-70
2024/03/07 06:21:39;;;;;;;70.78;23.13;;;;;;;;;;5006576;28;20091;-70
2024/03/07 06:24:04;;;;;;;58.85;22.95;;;;;;;;;;4999507;28;20110;-70
2024/03/07 06:26:37;;;;;;;78.18;25.92;;;;;;;;;;5000485;28;20022;-69
2024/03/07 06:29:05;;;;;;;64.05;22.85;;;;;;;;;;5001187;28;20034;-70
2024/03/07 06:31:30;;;;;;;67.43;25.23;;;;;;;;;;5000164;28;20745;-70
2024/03/07 06:33:56;;;;;;;68.93;23.77;;;;;;;;;;4999440;28;20046;-70
2024/03/07 06:36:22;;;;;;;63.38;23.75;;;;;;;;;;5006484;28;20116;-69
2024/03/07 06:38:47;;;;;;;70.80;23.10;;;;;;;;;;5002845;28;20433;-70
2024/03/07 06:41:12;;;;;;;71.07;24.27;;;;;;;;;;4999808;28;20273;-69
2024/03/07 06:43:38;;;;;;;72.40;23.90;;;;;;;;;;5004639;28;20596;-71
2024/03/07 06:46:03;;;;;;;63.72;23.13;;;;;;;;;;4994662;28;20128;-71
2024/03/07 06:48:28;;;;;;;73.38;26.55;;;;;;;;;;4993554;28;20884;-71
2024/03/07 06:50:54;;;;;;;78.87;27.60;;;;;;;;;;5004032;28;20021;-72
2024/03/07 06:53:20;;;;;;;69.30;25.60;;;;;;;;;;5003108;28;20265;-71
2024/03/07 06:55:45;;;;;;;77.32;26.73;;;;;;;;;;4997960;28;20257;-70
2024/03/07 06:58:10;;;;;;;75.90;25.98;;;;;;;;;;5000581;28;20045;-71
2024/03/07 07:00:35;;;;;;;68.07;25.05;;;;;;;;;;4995958;28;20088;-71
2024/03/07 07:03:03;;;;;;;64.18;25.05;;;;;;;;;;5005995;28;20090;-71
2024/03/07 07:05:29;;;;;;;62.50;23.83;;;;;;;;;;4996537;28;20041;-70
2024/03/07 07:07:54;;;;;;;63.50;25.00;;;;;;;;;;4995477;28;20038;-71
2024/03/07 07:10:23;;;;;;;69.78;25.42;;;;;;;;;;4997320;28;20042;-71
2024/03/07 07:12:48;;;;;;;68.95;24.67;;;;;;;;;;5006571;28;20547;-71
2024/03/07 07:15:15;;;;;;;58.15;24.45;;;;;;;;;;4999116;28;20026;-71
2024/03/07 07:17:40;;;;;;;49.72;20.65;;;;;;;;;;5001085;28;20023;-71
2024/03/07 07:20:10;;;;;;;55.23;23.03;;;;;;;;;;5007465;28;20029;-68
2024/03/07 07:22:35;;;;;;;60.87;23.13;;;;;;;;;;5005094;28;20292;-68
2024/03/07 07:25:00;;;;;;;60.83;22.17;;;;;;;;;;5002993;28;20025;-69
2024/03/07 07:27:25;;;;;;;50.60;21.50;;;;;;;;;;5005633;28;20033;-69
2024/03/07 07:29:51;;;;;;;54.17;22.47;;;;;;;;;;5003250;28;20037;-69
2024/03/07 07:32:16;;;;;;;46.07;22.33;;;;;;;;;;5007874;28;20308;-68
2024/03/07 07:34:42;;;;;;;44.03;20.33;;;;;;;;;;5003284;28;20319;-68
2024/03/07 07:37:08;;;;;;;38.10;19.50;;;;;;;;;;5007296;28;20025;-69
2024/03/07 07:39:34;;;;;;;43.25;20.77;;;;;;;;;;4995238;28;20081;-70
2024/03/07 07:41:59;;;;;;;38.70;20.03;;;;;;;;;;5008453;28;20013;-71
2024/03/07 07:44:24;;;;;;;39.45;20.80;;;;;;;;;;4993802;28;20784;-72
2024/03/07 07:46:49;;;;;;;36.50;19.17;;;;;;;;;;5005887;28;20022;-70
2024/03/07 07:49:15;;;;;;;40.03;19.97;;;;;;;;;;5007438;28;20269;-71
2024/03/07 07:51:41;;;;;;;43.78;19.60;;;;;;;;;;5005789;28;20272;-71
2024/03/07 07:54:09;;;;;;;36.13;18.70;;;;;;;;;;5006337;28;20014;-72
2024/03/07 07:56:34;;;;;;;31.83;17.92;;;;;;;;;;5007029;28;20028;-70
2024/03/07 07:58:59;;;;;;;35.25;18.83;;;;;;;;;;4997849;28;20026;-71
2024/03/07 08:01:25;;;;;;;34.80;16.97;;;;;;;;;;5006013;28;20040;-70
2024/03/07 08:03:50;;;;;;;41.33;19.08;;;;;;;;;;5009370;28;20336;-71
2024/03/07 08:06:17;;;;;;;34.00;18.58;;;;;;;;;;5004315;28;20022;-70
2024/03/07 08:08:42;;;;;;;31.30;18.35;;;;;;;;;;5011209;28;20025;-70
2024/03/07 08:11:08;;;;;;;36.33;18.23;;;;;;;;;;5005142;28;20044;-71
2024/03/07 08:13:35;;;;;;;36.85;18.73;;;;;;;;;;5001751;28;20348;-71
2024/03/07 08:16:00;;;;;;;33.47;17.67;;;;;;;;;;5008708;28;20017;-71
2024/03/07 08:18:26;;;;;;;35.47;17.80;;;;;;;;;;5010308;28;20029;-68
2024/03/07 08:20:52;;;;;;;32.97;16.20;;;;;;;;;;5002282;28;20021;-68
2024/03/07 08:23:17;;;;;;;38.08;18.33;;;;;;;;;;5008008;28;20396;-68
2024/03/07 08:25:42;;;;;;;34.17;17.33;;;;;;;;;;5009957;28;20030;-68
2024/03/07 08:28:08;;;;;;;37.00;18.42;;;;;;;;;;5010227;28;20363;-70
2024/03/07 08:30:34;;;;;;;31.60;16.42;;;;;;;;;;5011566;28;20025;-69
2024/03/07 08:33:02;;;;;;;34.60;17.08;;;;;;;;;;5011789;28;20539;-68
2024/03/07 08:35:28;;;;;;;33.53;16.52;;;;;;;;;;5004653;28;20114;-69
2024/03/07 08:37:55;;;;;;;33.10;16.48;;;;;;;;;;4995962;28;20022;-68
2024/03/07 08:40:21;;;;;;;32.08;15.82;;;;;;;;;;5011590;28;20031;-69
2024/03/07 08:42:47;;;;;;;30.55;16.58;;;;;;;;;;5006851;28;20516;-69
2024/03/07 08:45:16;;;;;;;33.90;16.42;;;;;;;;;;5004364;28;20497;-68
2024/03/07 08:47:43;;;;;;;30.90;15.93;;;;;;;;;;5002806;28;20028;-68
2024/03/07 08:50:08;;;;;;;32.33;16.52;;;;;;;;;;5002905;28;20025;-71
2024/03/07 08:52:36;;;;;;;33.05;15.35;;;;;;;;;;5010918;28;20022;-70
2024/03/07 08:55:02;;;;;;;32.13;16.65;;;;;;;;;;5007702;28;20072;-70
2024/03/07 08:57:27;;;;;;;30.55;15.15;;;;;;;;;;4997241;28;20030;-71
2024/03/07 08:59:52;;;;;;;30.00;16.97;;;;;;;;;;5010653;28;20030;-70
2024/03/07 09:02:18;;;;;;;33.33;15.50;;;;;;;;;;5010084;28;20265;-70
2024/03/07 09:04:43;;;;;;;33.00;15.03;;;;;;;;;;5010818;28;20283;-70
2024/03/07 09:07:08;;;;;;;28.35;15.30;;;;;;;;;;5007865;28;20371;-71
2024/03/07 09:09:33;;;;;;;36.45;16.13;;;;;;;;;;5010842;28;20046;-69
2024/03/07 09:12:01;;;;;;;30.45;16.73;;;;;;;;;;5010365;28;20010;-70
2024/03/07 09:14:26;;;;;;;33.80;16.27;;;;;;;;;;5006687;28;20037;-71
2024/03/07 09:16:51;;;;;;;30.45;15.82;;;;;;;;;;5001707;28;20557;-69
2024/03/07 09:19:19;;;;;;;29.33;15.43;;;;;;;;;;5010895;28;20548;-70
2024/03/07 09:21:46;;;;;;;31.02;14.57;;;;;;;;;;5010108;28;20026;-71
2024/03/07 09:24:11;;;;;;;24.30;12.00;;;;;;;;;;5010893;28;20010;-70
2024/03/07 09:26:36;;;;;;;28.30;13.90;;;;;;;;;;5008765;28;20075;-69
2024/03/07 09:29:05;;;;;;;28.73;14.50;;;;;;;;;;5010025;28;20030;-69
2024/03/07 09:31:31;;;;;;;27.60;12.70;;;;;;;;;;5010179;28;20256;-69
2024/03/07 09:33:58;;;;;;;34.70;16.60;;;;;;;;;;5004554;28;20014;-69
2024/03/07 09:36:23;;;;;;;26.33;12.10;;;;;;;;;;5009548;28;20018;-69
2024/03/07 09:38:48;;;;;;;20.63;9.05;;;;;;;;;;5009316;28;20088;-69
2024/03/07 09:41:15;;;;;;;19.17;8.73;;;;;;;;;;5002438;28;20060;-69
2024/03/07 09:43:43;;;;;;;27.15;13.23;;;;;;;;;;5005371;28;20264;-69
2024/03/07 09:46:10;;;;;;;36.13;14.98;;;;;;;;;;5009957;28;20019;-69
2024/03/07 09:48:35;;;;;;;35.42;12.98;;;;;;;;;;5009945;28;20129;-69
2024/03/07 09:51:02;;;;;;;32.33;17.00;;;;;;;;;;5010551;28;20093;-69
2024/03/07 09:53:27;;;;;;;30.67;13.30;;;;;;;;;;5007475;28;20021;-69
2024/03/07 09:55:53;;;;;;;24.80;10.25;;;;;;;;;;5001655;28;20068;-69
2024/03/07 09:58:22;;;;;;;30.92;13.02;;;;;;;;;;5010107;28;20014;-69
2024/03/07 10:00:50;;;;;;;22.23;10.52;;;;;;;;;;5009553;28;20487;-70
2024/03/07 10:03:18;;;;;;;32.72;14.73;;;;;;;;;;5009431;28;20021;-71
2024/03/07 10:05:44;;;;;;;31.98;13.35;;;;;;;;;;5009673;28;20148;-70
2024/03/07 10:08:10;;;;;;;36.75;18.13;;;;;;;;;;5009792;28;20061;-69
2024/03/07 10:10:35;;;;;;;35.97;16.17;;;;;;;;;;5003166;28;20026;-70
2024/03/07 10:13:01;;;;;;;29.90;12.32;;;;;;;;;;5004120;28;20040;-69
2024/03/07 10:15:29;;;;;;;40.83;17.23;;;;;;;;;;5006116;28;20068;-69
2024/03/07 10:17:55;;;;;;;35.17;15.38;;;;;;;;;;5001602;28;20026;-69
2024/03/07 10:20:22;;;;;;;41.33;16.80;;;;;;;;;;5007901;28;20365;-70
2024/03/07 10:22:48;;;;;;;30.67;13.50;;;;;;;;;;4994382;28;20108;-69
2024/03/07 10:25:16;;;;;;;39.25;18.00;;;;;;;;;;4998277;28;20739;-69
2024/03/07 10:27:42;;;;;;;37.45;17.50;;;;;;;;;;4997753;28;20025;-69
2024/03/07 10:30:07;;;;;;;32.85;14.68;;;;;;;;;;4998445;28;20015;-69
2024/03/07 10:32:33;;;;;;;32.95;17.15;;;;;;;;;;5006221;28;20018;-69
2024/03/07 10:34:58;;;;;;;36.55;16.83;;;;;;;;;;5009243;28;20078;-69
2024/03/07 10:37:25;;;;;;;35.35;15.93;;;;;;;;;;5009234;28;20025;-70
2024/03/07 10:39:50;;;;;;;17.25;7.50;;;;;;;;;;4998641;28;20022;-70
2024/03/07 10:42:17;;;;;;;38.92;16.23;;;;;;;;;;4999424;28;20080;-70
2024/03/07 10:44:48;;;;;;;35.88;17.00;;;;;;;;;;5007758;28;20499;-70
2024/03/07 10:47:17;;;;;;;34.10;16.15;;;;;;;;;;4995701;28;20113;-69
2024/03/07 10:49:53;;;;;;;32.30;16.15;;;;;;;;;;5009446;28;20408;-71
2024/03/07 10:52:26;;;;;;;33.33;15.63;;;;;;;;;;5009877;28;20072;-70
2024/03/07 10:54:58;;;;;;;33.70;13.85;;;;;;;;;;5008606;28;20477;-70
2024/03/07 10:57:24;;;;;;;35.55;17.60;;;;;;;;;;4997667;28;20037;-70
2024/03/07 10:59:50;;;;;;;34.58;14.88;;;;;;;;;;5008482;28;20112;-70
2024/03/07 11:02:19;;;;;;;36.83;16.55;;;;;;;;;;5009009;28;20026;-70
2024/03/07 11:04:45;;;;;;;28.98;14.13;;;;;;;;;;5000772;28;20054;-70
2024/03/07 11:07:10;;;;;;;25.95;8.48;;;;;;;;;;5007871;28;20061;-70
2024/03/07 11:09:36;;;;;;;31.85;14.98;;;;;;;;;;5009150;28;20022;-70
2024/03/07 11:12:03;;;;;;;25.95;12.35;;;;;;;;;;5004425;28;20025;-70
2024/03/07 11:14:29;;;;;;;29.00;15.00;;;;;;;;;;5000892;28;20473;-71
2024/03/07 11:16:54;;;;;;;31.25;16.85;;;;;;;;;;4997846;28;20030;-70
2024/03/07 11:19:31;;;;;;;26.48;11.23;;;;;;;;;;5009113;28;20049;-70
2024/03/07 11:21:57;;;;;;;26.88;11.10;;;;;;;;;;4989624;28;20011;-69
2024/03/07 11:24:31;;;;;;;26.52;10.48;;;;;;;;;;5004271;28;20596;-69
2024/03/07 11:26:56;;;;;;;27.92;10.82;;;;;;;;;;5010423;28;20018;-70
2024/03/07 11:29:37;;;;;;;30.40;13.50;;;;;;;;;;5004672;28;20021;-70
2024/03/07 11:32:02;;;;;;;32.17;13.35;;;;;;;;;;4998026;28;20075;-70
2024/03/07 11:34:30;;;;;;;33.15;14.70;;;;;;;;;;5013019;28;20022;-70
2024/03/07 11:36:56;;;;;;;34.88;13.50;;;;;;;;;;5007770;28;20481;-72
2024/03/07 11:39:43;;;;;;;30.67;14.93;;;;;;;;;;4997648;28;20037;-70
2024/03/07 11:42:09;;;;;;;33.08;14.05;;;;;;;;;;5003256;28;20363;-70
2024/03/07 11:44:34;;;;;;;28.48;13.13;;;;;;;;;;5010262;28;20032;-70
2024/03/07 11:47:08;;;;;;;26.33;12.90;;;;;;;;;;4996864;28;20017;-70
2024/03/07 11:49:35;;;;;;;23.75;11.30;;;;;;;;;;4996144;28;20177;-70
2024/03/07 11:52:04;;;;;;;27.65;11.85;;;;;;;;;;5009329;28;20030;-70
2024/03/07 11:54:30;;;;;;;16.17;6.82;;;;;;;;;;5012352;28;20018;-71
2024/03/07 11:56:56;;;;;;;26.27;11.85;;;;;;;;;;5011853;28;20022;-71
2024/03/07 11:59:22;;;;;;;23.75;13.27;;;;;;;;;;5011315;28;20033;-70
2024/03/07 12:01:48;;;;;;;29.27;13.20;;;;;;;;;;4998770;28;20018;-70
2024/03/07 12:04:15;;;;;;;26.25;11.98;;;;;;;;;;4998456;28;20113;-69
2024/03/07 12:06:49;;;;;;;25.48;11.10;;;;;;;;;;5000725;28;20540;-71
2024/03/07 12:09:23;;;;;;;26.98;12.57;;;;;;;;;;5012246;28;20022;-70
2024/03/07 12:11:52;;;;;;;24.38;12.02;;;;;;;;;;5011566;28;20009;-70
2024/03/07 12:14:17;;;;;;;22.48;11.65;;;;;;;;;;5012181;28;20020;-71
2024/03/07 12:16:43;;;;;;;28.52;12.35;;;;;;;;;;5008712;28;20120;-70
2024/03/07 12:19:09;;;;;;;24.10;11.40;;;;;;;;;;4992857;28;20053;-70
2024/03/07 12:21:36;;;;;;;22.35;11.32;;;;;;;;;;5007326;28;20644;-69
2024/03/07 12:24:10;;;;;;;33.92;12.68;;;;;;;;;;4999504;28;20053;-70
2024/03/07 12:26:37;;;;;;;27.58;11.68;;;;;;;;;;5002581;28;20026;-69
2024/03/07 12:29:09;;;;;;;22.13;11.43;;;;;;;;;;5011423;28;20076;-70
2024/03/07 12:31:35;;;;;;;24.13;11.35;;;;;;;;;;5009607;28;20018;-69
2024/03/07 12:34:00;;;;;;;22.65;10.85;;;;;;;;;;5001839;28;20017;-69
2024/03/07 12:36:34;;;;;;;26.27;10.88;;;;;;;;;;5002924;28;20018;-69
2024/03/07 12:39:03;;;;;;;24.38;10.00;;;;;;;;;;5007760;28;20428;-70
2024/03/07 12:41:34;;;;;;;16.08;5.55;;;;;;;;;;5000858;28;20084;-69
2024/03/07 12:43:59;;;;;;;20.10;8.80;;;;;;;;;;5004175;28;20034;-71
2024/03/07 12:46:25;;;;;;;14.88;6.60;;;;;;;;;;5005157;28;20068;-70
2024/03/07 12:48:50;;;;;;;23.58;9.85;;;;;;;;;;5000324;28;20046;-69
2024/03/07 12:51:18;;;;;;;21.85;9.73;;;;;;;;;;4998483;28;20064;-71
2024/03/07 12:53:43;;;;;;;18.77;9.98;;;;;;;;;;5002443;28;20049;-71
2024/03/07 12:56:09;;;;;;;21.25;9.93;;;;;;;;;;5004341;28;20605;-70
2024/03/07 12:58:34;;;;;;;20.67;9.80;;;;;;;;;;5007272;28;20033;-70
2024/03/07 13:01:00;;;;;;;19.05;7.95;;;;;;;;;;4991842;28;20030;-71
2024/03/07 13:03:29;;;;;;;15.88;8.65;;;;;;;;;;4997809;28;20018;-70
2024/03/07 13:05:55;;;;;;;20.27;10.05;;;;;;;;;;4998659;28;20026;-71
2024/03/07 13:08:25;;;;;;;18.80;9.80;;;;;;;;;;5006950;28;20103;-70
2024/03/07 13:10:50;;;;;;;;;;;;;;;;;;4993123;28;20026;-70
2024/03/07 13:13:16;;;;;;;18.33;9.13;;;;;;;;;;5001681;28;19905;-70
2024/03/07 13:15:42;;;;;;;19.65;8.77;;;;;;;;;;5002138;28;20018;-71
2024/03/07 13:18:08;;;;;;;20.48;10.02;;;;;;;;;;5005977;28;20057;-72
2024/03/07 13:20:34;;;;;;;21.30;10.98;;;;;;;;;;4992458;28;20037;-72
2024/03/07 13:23:00;;;;;;;18.80;10.10;;;;;;;;;;4999560;28;20018;-71
2024/03/07 13:25:26;;;;;;;24.58;10.20;;;;;;;;;;4995939;28;20033;-71
2024/03/07 13:28:13;;;;;;;20.50;9.27;;;;;;;;;;5002755;28;20029;-71
2024/03/07 13:30:39;;;;;;;21.48;10.98;;;;;;;;;;5019141;28;20032;-70
2024/03/07 13:33:05;;;;;;;17.15;7.93;;;;;;;;;;4995589;28;20433;-71
2024/03/07 13:35:30;;;;;;;19.88;8.57;;;;;;;;;;5006498;28;20022;-70
2024/03/07 13:37:56;;;;;;;15.98;6.53;;;;;;;;;;5002645;28;20421;-70
2024/03/07 13:40:24;;;;;;;15.77;6.88;;;;;;;;;;5005041;28;20018;-70
2024/03/07 13:42:51;;;;;;;20.33;9.07;;;;;;;;;;5002001;28;20048;-70
2024/03/07 13:45:17;;;;;;;13.57;6.43;;;;;;;;;;5002454;28;20110;-71
2024/03/07 13:47:42;;;;;;;19.67;9.75;;;;;;;;;;4998542;28;20062;-70
2024/03/07 13:50:11;;;;;;;18.52;6.93;;;;;;;;;;4995922;28;20014;-70
2024/03/07 13:52:43;;;;;;;16.80;8.07;;;;;;;;;;5007881;28;20045;-71
2024/03/07 13:55:11;;;;;;;18.88;8.13;;;;;;;;;;5005452;28;20020;-70
2024/03/07 13:57:43;;;;;;;21.08;10.32;;;;;;;;;;5000772;28;20741;-70
2024/03/07 14:00:27;;;;;;;21.20;9.55;;;;;;;;;;5000402;28;20027;-71
2024/03/07 14:02:55;;;;;;;17.33;10.10;;;;;;;;;;4993401;28;20026;-71
2024/03/07 14:05:23;;;;;;;17.17;8.20;;;;;;;;;;5004753;28;20023;-70
2024/03/07 14:08:14;;;;;;;19.92;9.30;;;;;;;;;;4997299;28;20023;-70
2024/03/07 14:10:56;;;;;;;8.85;5.07;;;;;;;;;;5000097;28;20025;-71
2024/03/07 14:13:42;;;;;;;16.73;6.32;;;;;;;;;;5006420;28;20046;-71